Riviere-Au-Renard, Canada
Current Conditions -  °F | °C
As of 7:00 PM on Friday 24 Oct 2014 (Local Time) from CYGP Reporting Station
Light Rain Light Rain  
Wind Chill: 43°   Ceiling: 2500
Heat Index: 43°   Visibility: 7mi
Dew Point: 36°   Wind: 3mph
Humidity: 76%   Direction: 90°E
Pressure: 29.74"   Gusts: NA
Location:  48.98°N, 64.38°W
Report Text: CYGP 242300Z 09003KT 360V150 7SM -RA OVC025 06/02 A2974 RMK SC8 SLP071
Loading
Personal Weather Stations






























Interactive Weather Map
Tropical Storm Tracking
New forecast layout! Learn more

10-Day Weather Forecast

Advertisements
Track Severe Weather on mobile